Details From NCRG - Rarotonga Intl
To NTAA - Faaa
Flight Number -
Tags Generated
Created
Modified
Stats Distance 618 nm / 1,144 km
Max Altitude 0 ft / 0 m
Waypoints 3
Social Downloads 3
Likes 0
Share VATSIM

Download

Looking for another format? Having issues loading an existing format? Contact us
Advertisement - Login to hide

Notes

Generated

Route

NCRG OVINI NTAA

ID Type Via Altitude Latitude Longitude Leg Dist Tot Dist Heading (true) Name
O NCRG APT - 0 ft / 0 m -21.20274˚ -159.81677˚ - 0 nm - -
OVINI FIX - 0 ft / 0 m -17.68097˚ -149.78033˚ 606 nm 606 nm 71° / 68° -
O NTAA APT - 0 ft / 0 m -17.56288˚ -149.62043˚ 11 nm 617 nm 52° / 52° -

Altitude Profile

Advertisement - Login to hide

Weather


0- 5 10 15 20 25 30 35+ Temperature / ° C

Clouds and Precipitation
Forecast for 2017-12-17 18:00 UTC. Updated 21 minutes ago

Ground ~20,000 ft ~40,000 ft Winds

NCRG

Details ICAO NCRG (RAR)
Name Rarotonga Intl
Region Cook Islands
Timezone Pacific/Rarotonga (UTC-10.0)
Stats Elevation 19 ft / 6 m (AMSL)
Location -21.202739° -159.805555°
Runways 1
Magnetic Variation 13.934° E

METAR

NCRG 171300Z 15003KT 9999 FEW022 21/20 Q1006 RMK DEW ON GRASS

Decode

TAF

TAF NCRG 171100Z 1712/1812 09006KT 9999 SCT020 BKN045 PROB40 TEMPO 1806/1812 3000 TSRA BKN015 FEW017CB

Decode

Departure Runways

ID Width Length Bearing (true) Bearing (mag) Surface Threshold Offset Overrun Length
08 150 ft / 46 m 7,629 ft / 2,325 m 89.99° 76.06° Concrete 400 ft / 122 m 100 ft / 30 m
26 150 ft / 46 m 7,629 ft / 2,325 m 269.98° 256.05° Concrete 0 ft / 0 m 0 ft / 0 m

NTAA

Details ICAO NTAA (PPT)
Name Faaa
Region French Polynesia
Timezone Pacific/Tahiti (UTC-10.0)
Stats Elevation 5 ft / 2 m (AMSL)
Location -17.553765° -149.607255°
Runways 1
Magnetic Variation 12.875° E

METAR

NTAA 171330Z AUTO 06003KT 9999 NCD 25/22 Q1007

Decode

TAF

TAF NTAA 171100Z 1712/1818 01003KT 9999 FEW020 BKN040 BKN110 BECMG 1718/1720 02013KT BECMG 1804/1806 01003KT PROB40 TEMPO 1712/1809 03015G25KT 2800 SHRA FEW014CB BKN017 OVC035 FM181200 03005KT 9999 FEW020 SCT050

Decode

Destination Runways

ID Width Length Bearing (true) Bearing (mag) Surface Threshold Offset Overrun Length
04 148 ft / 45 m 11,323 ft / 3,451 m 54.04° 41.16° Asphalt 1,099 ft / 335 m 0 ft / 0 m
22 148 ft / 45 m 11,323 ft / 3,451 m 234.03° 221.15° Asphalt 479 ft / 146 m 0 ft / 0 m

Approach Navaids

Runway Type Ident Frequency Range Bearing (true) Bearing (mag) Slope Elevation
04 Localiser PT 109.90 MHz 18 nm / 33 km 54.05° 41.18° - 20 ft / 6 m (AMSL)
04 Glidescope PT 109.90 MHz 10 nm / 19 km 54.03° 41.16° 3.00° 59 ft / 18 m (AMSL)
04 DME PT 109.90 MHz 18 nm / 33 km - - - 59 ft / 18 m (AMSL)

Popular Alternatives